createdAt,value
2023-06-21T00:00:01.372Z,1010.28
2023-06-21T00:01:06.888Z,1010.23
2023-06-21T00:02:01.045Z,1010.24
2023-06-21T00:03:01.152Z,1010.2
2023-06-21T00:04:01.918Z,1010.23
2023-06-21T00:05:01.948Z,1010.22
2023-06-21T00:06:09.975Z,1010.27
2023-06-21T00:07:01.374Z,1010.3
2023-06-21T00:08:01.110Z,1010.24
2023-06-21T00:09:01.139Z,1010.3
2023-06-21T00:10:01.237Z,1010.33
2023-06-21T00:11:12.838Z,1010.3
2023-06-21T00:12:01.113Z,1010.25
2023-06-21T00:13:00.827Z,1010.27
2023-06-21T00:14:00.438Z,1010.22
2023-06-21T00:15:00.115Z,1010.19
2023-06-21T00:16:14.902Z,1010.17
2023-06-21T00:17:01.045Z,1010.16
2023-06-21T00:18:01.414Z,1010.08
2023-06-21T00:19:01.313Z,1010.08
2023-06-21T00:20:04.030Z,1010.03
2023-06-21T00:21:16.736Z,1010.04
2023-06-21T00:22:01.077Z,1010.01
2023-06-21T00:23:01.082Z,1010.08
2023-06-21T00:24:01.192Z,1010.03
2023-06-21T00:25:01.443Z,1010.1
2023-06-21T00:26:01.106Z,1010.08
2023-06-21T00:27:01.113Z,1010.08
2023-06-21T00:28:01.170Z,1010.11
2023-06-21T00:29:01.130Z,1010.07
2023-06-21T00:30:01.141Z,1010.08
2023-06-21T00:31:01.319Z,1010.06
2023-06-21T00:32:01.054Z,1010.05
2023-06-21T00:33:01.808Z,1010.04
2023-06-21T00:34:01.728Z,1010.12
2023-06-21T00:35:01.070Z,1010.07
2023-06-21T00:36:01.064Z,1010.16
2023-06-21T00:37:01.077Z,1010.17
2023-06-21T00:38:01.206Z,1010.17
2023-06-21T00:39:01.199Z,1010.14
2023-06-21T00:40:01.206Z,1010.16
2023-06-21T00:41:01.213Z,1010.26
2023-06-21T00:42:01.180Z,1010.28
2023-06-21T00:43:01.065Z,1010.33
2023-06-21T00:44:01.184Z,1010.33
2023-06-21T00:45:01.356Z,1010.33
2023-06-21T00:46:01.117Z,1010.33
2023-06-21T00:47:02.587Z,1010.32
2023-06-21T00:48:01.890Z,1010.31
2023-06-21T00:49:01.816Z,1010.32
2023-06-21T00:50:02.091Z,1010.27
2023-06-21T00:51:01.153Z,1010.34
2023-06-21T00:52:01.042Z,1010.28
2023-06-21T00:53:01.036Z,1010.27
2023-06-21T00:54:01.116Z,1010.27
2023-06-21T00:55:01.089Z,1010.28
2023-06-21T00:56:01.473Z,1010.25
2023-06-21T00:57:01.014Z,1010.26
2023-06-21T00:58:01.113Z,1010.28
2023-06-21T00:59:01.038Z,1010.23
2023-06-21T01:00:00.710Z,1010.19
2023-06-21T01:01:00.299Z,1010.2
2023-06-21T01:01:59.933Z,1010.19
2023-06-21T01:02:59.775Z,1010.18
2023-06-21T01:04:01.725Z,1010.17
2023-06-21T01:05:01.864Z,1010.15
2023-06-21T01:06:01.986Z,1010.17
2023-06-21T01:07:01.083Z,1010.16
2023-06-21T01:08:01.086Z,1010.19
2023-06-21T01:09:00.761Z,1010.15
2023-06-21T01:10:00.428Z,1010.13
2023-06-21T01:11:00.072Z,1010.12
2023-06-21T01:12:00.097Z,1010.13
2023-06-21T01:13:00.114Z,1010.1
2023-06-21T01:13:59.901Z,1010.1
2023-06-21T01:14:59.699Z,1010.16
2023-06-21T01:16:01.565Z,1010.14
2023-06-21T01:17:01.341Z,1010.18
2023-06-21T01:18:01.823Z,1010.21
2023-06-21T01:19:01.088Z,1010.26
2023-06-21T01:20:01.061Z,1010.22
2023-06-21T01:21:01.065Z,1010.25
2023-06-21T01:22:01.085Z,1010.19
2023-06-21T01:23:00.751Z,1010.17
2023-06-21T01:24:00.750Z,1010.1
2023-06-21T01:25:01.878Z,1010.05
2023-06-21T01:25:59.537Z,1010.02
2023-06-21T01:27:01.133Z,1010.03
2023-06-21T01:28:01.096Z,1010.01
2023-06-21T01:29:01.121Z,1009.99
2023-06-21T01:30:01.156Z,1010.02
2023-06-21T01:31:01.156Z,1010.05
2023-06-21T01:32:01.295Z,1010.03
2023-06-21T01:33:01.215Z,1010
2023-06-21T01:34:03.923Z,1010.07
2023-06-21T01:35:01.048Z,1010.1
2023-06-21T01:36:01.054Z,1010.1
2023-06-21T01:37:01.063Z,1010.11
2023-06-21T01:38:01.112Z,1010.11
2023-06-21T01:39:02.252Z,1010.1
2023-06-21T01:40:01.030Z,1010.1
2023-06-21T01:41:01.084Z,1010.1
2023-06-21T01:42:01.706Z,1010.1
2023-06-21T01:43:01.536Z,1010.09
2023-06-21T01:44:01.108Z,1010.08
2023-06-21T01:45:01.018Z,1010.1
2023-06-21T01:46:01.088Z,1010.13
2023-06-21T01:47:05.142Z,1010.17
2023-06-21T01:48:01.867Z,1010.13
2023-06-21T01:49:01.060Z,1010.16
2023-06-21T01:50:01.452Z,1010.19
2023-06-21T01:51:01.179Z,1010.22
2023-06-21T01:52:07.785Z,1010.25
2023-06-21T01:53:01.015Z,1010.31
2023-06-21T01:54:01.011Z,1010.43
2023-06-21T01:55:01.075Z,1010.66
2023-06-21T01:56:01.086Z,1010.77
2023-06-21T01:57:09.714Z,1010.94
2023-06-21T01:58:01.092Z,1011.04
2023-06-21T01:59:01.039Z,1011.2
2023-06-21T02:00:00.847Z,1011.2
2023-06-21T02:01:01.234Z,1011.1
2023-06-21T02:02:13.098Z,1011.08
2023-06-21T02:03:02.217Z,1011.13
2023-06-21T02:04:00.848Z,1011.12
2023-06-21T02:05:01.075Z,1011.21
2023-06-21T02:06:00.795Z,1011.26
2023-06-21T02:07:14.244Z,1011.29
2023-06-21T02:08:01.737Z,1011.23
2023-06-21T02:09:01.901Z,1011.18
2023-06-21T02:10:02.074Z,1011.24
2023-06-21T02:11:01.088Z,1011.13
2023-06-21T02:12:01.254Z,1011.17
2023-06-21T02:13:01.499Z,1011.18
2023-06-21T02:14:01.473Z,1011.16
2023-06-21T02:15:01.446Z,1011.17
2023-06-21T02:16:01.140Z,1011.17
2023-06-21T02:17:01.028Z,1011.13
2023-06-21T02:18:01.486Z,1011.16
2023-06-21T02:19:01.138Z,1011.2
2023-06-21T02:20:02.410Z,1011.21
2023-06-21T02:21:01.870Z,1011.22
2023-06-21T02:22:01.064Z,1011.16
2023-06-21T02:23:00.684Z,1011.2
2023-06-21T02:24:00.260Z,1011.17
2023-06-21T02:25:00.257Z,1011.14
2023-06-21T02:25:59.949Z,1011.16
2023-06-21T02:26:59.651Z,1011.21
2023-06-21T02:28:01.544Z,1011.17
2023-06-21T02:29:01.299Z,1011.17
2023-06-21T02:30:02.959Z,1011.2
2023-06-21T02:31:02.643Z,1011.26
2023-06-21T02:32:01.128Z,1011.3
2023-06-21T02:33:01.185Z,1011.33
2023-06-21T02:34:00.605Z,1011.31
2023-06-21T02:35:00.595Z,1011.29
2023-06-21T02:36:00.530Z,1011.26
2023-06-21T02:37:00.114Z,1011.31
2023-06-21T02:37:59.827Z,1011.27
2023-06-21T02:39:01.473Z,1011.25
2023-06-21T02:40:01.084Z,1011.26
2023-06-21T02:41:01.074Z,1011.22
2023-06-21T02:42:01.072Z,1011.22
2023-06-21T02:43:01.101Z,1011.24
2023-06-21T02:44:01.109Z,1011.29
2023-06-21T02:45:01.366Z,1011.32
2023-06-21T02:46:03.921Z,1011.31
2023-06-21T02:47:02.256Z,1011.29
2023-06-21T02:48:01.258Z,1011.28
2023-06-21T02:49:01.326Z,1011.3
2023-06-21T02:50:01.049Z,1011.31
2023-06-21T02:51:01.060Z,1011.24
2023-06-21T02:52:01.050Z,1011.22
2023-06-21T02:53:01.772Z,1011.21
2023-06-21T02:54:02.105Z,1011.24
2023-06-21T02:55:01.364Z,1011.23
2023-06-21T02:56:03.873Z,1011.18
2023-06-21T02:57:01.248Z,1011.22
2023-06-21T02:58:00.909Z,1011.17
2023-06-21T02:59:01.830Z,1011.16
2023-06-21T03:00:01.065Z,1011.14
2023-06-21T03:01:01.274Z,1011.09
2023-06-21T03:02:01.108Z,1011.12
2023-06-21T03:03:01.438Z,1011.06
2023-06-21T03:04:01.180Z,1011.07
2023-06-21T03:05:02.026Z,1011.08
2023-06-21T03:06:01.040Z,1011.06
2023-06-21T03:07:01.053Z,1011.01
2023-06-21T03:08:02.127Z,1011.06
2023-06-21T03:09:02.430Z,1011.04
2023-06-21T03:10:01.373Z,1011.07
2023-06-21T03:11:02.081Z,1011.06
2023-06-21T03:12:01.086Z,1011.08
2023-06-21T03:13:01.075Z,1011.09
2023-06-21T03:14:00.671Z,1011.09
2023-06-21T03:15:00.554Z,1011.1
2023-06-21T03:16:00.176Z,1011.1
2023-06-21T03:16:59.926Z,1011.11
2023-06-21T03:17:59.694Z,1011.1
2023-06-21T03:19:02.050Z,1011.08
2023-06-21T03:20:01.456Z,1011.02
2023-06-21T03:21:01.041Z,1010.98
2023-06-21T03:22:01.134Z,1010.89
2023-06-21T03:23:01.069Z,1010.9
2023-06-21T03:24:01.695Z,1010.9
2023-06-21T03:25:00.761Z,1010.87
2023-06-21T03:26:00.469Z,1010.89
2023-06-21T03:27:00.244Z,1010.84
2023-06-21T03:28:01.390Z,1010.86
2023-06-21T03:29:00.825Z,1010.86
2023-06-21T03:30:01.197Z,1010.9
2023-06-21T03:31:02.545Z,1010.97
2023-06-21T03:32:00.622Z,1010.96
2023-06-21T03:33:04.379Z,1011.06
2023-06-21T03:34:00.817Z,1011.17
2023-06-21T03:35:00.523Z,1011.16
2023-06-21T03:36:00.251Z,1011.18
2023-06-21T03:37:00.252Z,1011.19
2023-06-21T03:38:05.954Z,1011.26
2023-06-21T03:39:02.546Z,1011.3
2023-06-21T03:40:01.087Z,1011.24
2023-06-21T03:41:01.049Z,1011.28
2023-06-21T03:42:01.059Z,1011.27
2023-06-21T03:43:09.962Z,1011.29
2023-06-21T03:44:01.083Z,1011.31
2023-06-21T03:45:01.246Z,1011.3
2023-06-21T03:46:01.515Z,1011.35
2023-06-21T03:47:01.484Z,1011.34
2023-06-21T03:48:12.642Z,1011.33
2023-06-21T03:49:01.207Z,1011.34
2023-06-21T03:50:01.308Z,1011.36
2023-06-21T03:51:00.961Z,1011.32
2023-06-21T03:52:01.046Z,1011.31
2023-06-21T03:53:15.728Z,1011.3
2023-06-21T03:54:01.344Z,1011.26
2023-06-21T03:55:01.652Z,1011.26
2023-06-21T03:56:01.023Z,1011.27
2023-06-21T03:57:01.209Z,1011.33
2023-06-21T03:58:00.867Z,1011.35
2023-06-21T03:59:01.082Z,1011.33
2023-06-21T04:00:01.012Z,1011.37
2023-06-21T04:01:01.089Z,1011.44
2023-06-21T04:02:01.110Z,1011.46
2023-06-21T04:03:02.074Z,1011.53
2023-06-21T04:04:01.613Z,1011.54
2023-06-21T04:05:01.242Z,1011.53
2023-06-21T04:06:01.521Z,1011.53
2023-06-21T04:07:01.050Z,1011.49
2023-06-21T04:08:01.195Z,1011.44
2023-06-21T04:09:01.052Z,1011.41
2023-06-21T04:10:01.135Z,1011.4
2023-06-21T04:11:01.109Z,1011.45
2023-06-21T04:12:01.110Z,1011.5
2023-06-21T04:13:01.072Z,1011.5
2023-06-21T04:14:00.968Z,1011.57
2023-06-21T04:15:01.494Z,1011.53
2023-06-21T04:16:01.309Z,1011.54
2023-06-21T04:17:03.994Z,1011.54
2023-06-21T04:18:01.213Z,1011.54
2023-06-21T04:19:00.722Z,1011.52
2023-06-21T04:20:00.288Z,1011.52
2023-06-21T04:20:59.904Z,1011.57
2023-06-21T04:21:59.749Z,1011.62
2023-06-21T04:23:01.670Z,1011.61
2023-06-21T04:24:01.470Z,1011.58
2023-06-21T04:25:01.486Z,1011.62
2023-06-21T04:26:01.971Z,1011.64
2023-06-21T04:27:01.061Z,1011.71
2023-06-21T04:28:01.024Z,1011.66
2023-06-21T04:29:01.028Z,1011.66
2023-06-21T04:30:00.679Z,1011.67
2023-06-21T04:31:00.394Z,1011.68
2023-06-21T04:32:00.317Z,1011.67
2023-06-21T04:33:01.262Z,1011.71
2023-06-21T04:34:02.164Z,1011.73
2023-06-21T04:35:02.044Z,1011.72
2023-06-21T04:36:01.505Z,1011.72
2023-06-21T04:37:01.116Z,1011.7
2023-06-21T04:38:00.821Z,1011.81
2023-06-21T04:39:00.413Z,1011.77
2023-06-21T04:40:12.332Z,1011.79
2023-06-21T04:41:01.242Z,1011.84
2023-06-21T04:42:01.290Z,1011.85
2023-06-21T04:43:01.434Z,1011.83
2023-06-21T04:44:01.084Z,1011.84
2023-06-21T04:45:01.087Z,1011.9
2023-06-21T04:46:01.288Z,1011.91
2023-06-21T04:47:01.081Z,1011.92
2023-06-21T04:48:01.123Z,1011.96
2023-06-21T04:49:01.108Z,1011.98
2023-06-21T04:50:15.076Z,1011.99
2023-06-21T04:51:01.715Z,1012.01
2023-06-21T04:52:01.351Z,1012
2023-06-21T04:53:01.523Z,1012.03
2023-06-21T04:54:01.203Z,1012.03
2023-06-21T04:55:02.707Z,1012.06
2023-06-21T04:56:03.209Z,1012.07
2023-06-21T04:57:01.447Z,1012.07
2023-06-21T04:58:01.905Z,1012.05
2023-06-21T04:59:01.082Z,1012.08
2023-06-21T05:00:01.206Z,1012.04
2023-06-21T05:01:02.409Z,1011.99
2023-06-21T05:02:01.440Z,1012.02
2023-06-21T05:03:02.199Z,1012.05
2023-06-21T05:04:01.027Z,1012.09
2023-06-21T05:05:01.108Z,1012.05
2023-06-21T05:06:01.211Z,1012.09
2023-06-21T05:07:01.110Z,1012.06
2023-06-21T05:08:01.190Z,1012.08
2023-06-21T05:09:01.148Z,1012.01
2023-06-21T05:10:01.444Z,1012.05
2023-06-21T05:11:01.858Z,1012
2023-06-21T05:12:01.338Z,1011.98
2023-06-21T05:13:01.045Z,1012
2023-06-21T05:14:01.035Z,1012
2023-06-21T05:15:01.056Z,1012.02
2023-06-21T05:16:01.021Z,1011.99
2023-06-21T05:17:01.235Z,1011.99
2023-06-21T05:18:01.974Z,1012
2023-06-21T05:19:01.032Z,1012.03
2023-06-21T05:20:01.629Z,1012.08
2023-06-21T05:21:01.109Z,1012.11
2023-06-21T05:22:01.130Z,1012.09
2023-06-21T05:23:01.157Z,1012.12
2023-06-21T05:24:04.088Z,1012.13
2023-06-21T05:25:01.060Z,1012.14
2023-06-21T05:26:03.182Z,1012.14
2023-06-21T05:27:01.071Z,1012.13
2023-06-21T05:28:01.296Z,1012.15
2023-06-21T05:29:06.240Z,1012.21
2023-06-21T05:30:01.529Z,1012.17
2023-06-21T05:31:01.101Z,1012.22
2023-06-21T05:32:01.081Z,1012.23
2023-06-21T05:33:01.101Z,1012.17
2023-06-21T05:34:09.169Z,1012.16
2023-06-21T05:35:00.710Z,1012.18
2023-06-21T05:36:00.385Z,1012.2
2023-06-21T05:37:00.064Z,1012.28
2023-06-21T05:37:59.612Z,1012.33
2023-06-21T05:39:12.834Z,1012.29
2023-06-21T05:40:02.266Z,1012.32
2023-06-21T05:41:04.602Z,1012.32
2023-06-21T05:42:01.060Z,1012.32
2023-06-21T05:43:01.050Z,1012.32
2023-06-21T05:44:15.793Z,1012.36
2023-06-21T05:45:01.471Z,1012.37
2023-06-21T05:46:01.269Z,1012.35
2023-06-21T05:47:00.805Z,1012.36
2023-06-21T05:48:00.480Z,1012.33
2023-06-21T05:49:00.063Z,1012.31
2023-06-21T05:49:59.650Z,1012.33
2023-06-21T05:51:01.278Z,1012.28
2023-06-21T05:52:01.125Z,1012.28
2023-06-21T05:53:01.105Z,1012.32
2023-06-21T05:54:01.152Z,1012.33
2023-06-21T05:55:01.446Z,1012.34
2023-06-21T05:56:01.022Z,1012.28
2023-06-21T05:57:01.045Z,1012.29
2023-06-21T05:58:01.040Z,1012.3
2023-06-21T05:59:01.062Z,1012.36
2023-06-21T06:00:00.768Z,1012.38
2023-06-21T06:01:08.983Z,1012.4
2023-06-21T06:02:01.793Z,1012.33
2023-06-21T06:03:01.117Z,1012.37
2023-06-21T06:04:01.128Z,1012.38
2023-06-21T06:05:01.447Z,1012.34
2023-06-21T06:06:02.651Z,1012.37
2023-06-21T06:07:01.107Z,1012.39
2023-06-21T06:08:01.057Z,1012.42
2023-06-21T06:09:01.124Z,1012.39
2023-06-21T06:10:01.159Z,1012.44
2023-06-21T06:11:02.471Z,1012.45
2023-06-21T06:12:01.534Z,1012.46
2023-06-21T06:13:01.729Z,1012.5
2023-06-21T06:14:02.643Z,1012.51
2023-06-21T06:15:01.559Z,1012.47
2023-06-21T06:16:02.263Z,1012.48
2023-06-21T06:17:01.065Z,1012.43
2023-06-21T06:18:00.868Z,1012.5
2023-06-21T06:19:01.069Z,1012.51
2023-06-21T06:20:00.793Z,1012.49
2023-06-21T06:21:00.588Z,1012.56
2023-06-21T06:22:00.491Z,1012.55
2023-06-21T06:23:00.252Z,1012.52
2023-06-21T06:24:00.260Z,1012.5
2023-06-21T06:24:59.867Z,1012.5
2023-06-21T06:25:59.668Z,1012.53
2023-06-21T06:27:01.869Z,1012.5
2023-06-21T06:28:01.325Z,1012.55
2023-06-21T06:29:01.147Z,1012.42
2023-06-21T06:30:01.047Z,1012.5
2023-06-21T06:31:01.516Z,1012.46
2023-06-21T06:32:01.394Z,1012.48
2023-06-21T06:33:01.141Z,1012.57
2023-06-21T06:34:01.077Z,1012.56
2023-06-21T06:35:01.045Z,1012.52
2023-06-21T06:36:01.097Z,1012.57
2023-06-21T06:37:12.148Z,1012.58
2023-06-21T06:38:01.100Z,1012.5
2023-06-21T06:39:01.100Z,1012.53
2023-06-21T06:40:01.036Z,1012.56
2023-06-21T06:41:00.667Z,1012.51
2023-06-21T06:42:00.510Z,1012.53
2023-06-21T06:43:00.091Z,1012.52
2023-06-21T06:43:59.709Z,1012.52
2023-06-21T06:45:01.777Z,1012.49
2023-06-21T06:46:01.100Z,1012.49
2023-06-21T06:47:01.220Z,1012.48
2023-06-21T06:48:01.914Z,1012.53
2023-06-21T06:49:01.647Z,1012.54
2023-06-21T06:50:00.663Z,1012.55
2023-06-21T06:51:00.396Z,1012.53
2023-06-21T06:52:00.060Z,1012.58
2023-06-21T06:52:59.752Z,1012.61
2023-06-21T06:54:03.712Z,1012.61
2023-06-21T06:55:01.348Z,1012.63
2023-06-21T06:56:01.253Z,1012.69
2023-06-21T06:57:01.532Z,1012.7
2023-06-21T06:58:06.160Z,1012.76
2023-06-21T06:59:02.391Z,1012.79
2023-06-21T07:00:01.163Z,1012.71
2023-06-21T07:01:01.957Z,1012.78
2023-06-21T07:02:01.151Z,1012.81
2023-06-21T07:03:01.134Z,1012.82
2023-06-21T07:04:01.133Z,1012.85
2023-06-21T07:05:01.046Z,1012.86
2023-06-21T07:06:01.079Z,1012.9
2023-06-21T07:07:01.152Z,1012.91
2023-06-21T07:08:01.112Z,1012.88
2023-06-21T07:09:01.180Z,1012.94
2023-06-21T07:10:02.075Z,1012.97
2023-06-21T07:11:01.102Z,1012.99
2023-06-21T07:12:01.125Z,1013.01
2023-06-21T07:13:01.064Z,1013.01
2023-06-21T07:14:01.063Z,1013
2023-06-21T07:15:05.429Z,1013
2023-06-21T07:16:01.389Z,1012.96
2023-06-21T07:17:01.423Z,1013.03
2023-06-21T07:18:01.491Z,1013
2023-06-21T07:19:01.174Z,1013
2023-06-21T07:20:07.894Z,1013.02
2023-06-21T07:21:01.880Z,1013.05
2023-06-21T07:22:01.036Z,1013.02
2023-06-21T07:23:01.461Z,1013.06
2023-06-21T07:24:00.695Z,1013.04
2023-06-21T07:25:10.309Z,1013.04
2023-06-21T07:26:02.116Z,1013.09
2023-06-21T07:27:01.180Z,1013.1
2023-06-21T07:28:01.126Z,1013.12
2023-06-21T07:29:01.144Z,1013.1
2023-06-21T07:30:14.261Z,1013.15
2023-06-21T07:31:01.145Z,1013.17
2023-06-21T07:32:01.046Z,1013.16
2023-06-21T07:33:01.127Z,1013.18
2023-06-21T07:34:03.312Z,1013.17
2023-06-21T07:35:01.022Z,1013.14
2023-06-21T07:36:02.114Z,1013.14
2023-06-21T07:37:01.837Z,1013.19
2023-06-21T07:38:01.044Z,1013.22
2023-06-21T07:39:01.019Z,1013.16
2023-06-21T07:40:01.015Z,1013.23
2023-06-21T07:41:01.110Z,1013.19
2023-06-21T07:42:12.653Z,1013.2
2023-06-21T07:43:01.131Z,1013.23
2023-06-21T07:44:01.167Z,1013.25
2023-06-21T07:45:01.468Z,1013.24
2023-06-21T07:46:14.530Z,1013.31
2023-06-21T07:47:01.072Z,1013.27
2023-06-21T07:48:01.611Z,1013.23
2023-06-21T07:49:01.058Z,1013.28
2023-06-21T07:50:09.292Z,1013.34
2023-06-21T07:51:01.474Z,1013.31
2023-06-21T07:52:01.904Z,1013.25
2023-06-21T07:53:01.466Z,1013.31
2023-06-21T07:54:01.923Z,1013.34
2023-06-21T07:55:01.120Z,1013.34
2023-06-21T07:56:01.109Z,1013.36
2023-06-21T07:57:01.112Z,1013.4
2023-06-21T07:58:01.107Z,1013.46
2023-06-21T07:59:01.453Z,1013.44
2023-06-21T08:00:01.173Z,1013.47
2023-06-21T08:01:01.050Z,1013.52
2023-06-21T08:02:00.805Z,1013.5
2023-06-21T08:03:01.055Z,1013.48
2023-06-21T08:04:01.104Z,1013.54
2023-06-21T08:05:01.089Z,1013.43
2023-06-21T08:06:01.317Z,1013.49
2023-06-21T08:07:01.066Z,1013.41
2023-06-21T08:08:01.122Z,1013.43
2023-06-21T08:09:02.157Z,1013.44
2023-06-21T08:10:01.789Z,1013.46
2023-06-21T08:11:01.986Z,1013.49
2023-06-21T08:12:01.392Z,1013.55
2023-06-21T08:13:01.130Z,1013.51
2023-06-21T08:14:01.140Z,1013.49
2023-06-21T08:15:01.145Z,1013.52
2023-06-21T08:16:01.034Z,1013.49
2023-06-21T08:17:01.035Z,1013.48
2023-06-21T08:18:01.473Z,1013.54
2023-06-21T08:19:01.055Z,1013.66
2023-06-21T08:20:01.089Z,1013.62
2023-06-21T08:21:00.756Z,1013.66
2023-06-21T08:22:00.497Z,1013.67
2023-06-21T08:23:00.276Z,1013.62
2023-06-21T08:23:59.942Z,1013.67
2023-06-21T08:24:59.526Z,1013.7
2023-06-21T08:26:01.850Z,1013.67
2023-06-21T08:27:01.205Z,1013.67
2023-06-21T08:28:01.173Z,1013.67
2023-06-21T08:29:01.117Z,1013.67
2023-06-21T08:30:01.144Z,1013.68
2023-06-21T08:31:01.136Z,1013.69
2023-06-21T08:32:01.292Z,1013.66
2023-06-21T08:33:02.419Z,1013.74
2023-06-21T08:34:01.043Z,1013.8
2023-06-21T08:35:01.051Z,1013.76
2023-06-21T08:36:01.450Z,1013.77
2023-06-21T08:37:01.082Z,1013.8
2023-06-21T08:38:08.840Z,1013.8
2023-06-21T08:39:01.081Z,1013.87
2023-06-21T08:40:01.149Z,1013.85
2023-06-21T08:41:01.481Z,1013.88
2023-06-21T08:42:00.995Z,1013.85
2023-06-21T08:43:01.174Z,1013.86
2023-06-21T08:44:01.182Z,1013.88
2023-06-21T08:45:01.485Z,1013.92
2023-06-21T08:46:01.142Z,1013.92
2023-06-21T08:47:01.034Z,1013.98
2023-06-21T08:48:01.161Z,1013.96
2023-06-21T08:49:01.041Z,1013.96
2023-06-21T08:50:01.018Z,1013.98
2023-06-21T08:51:01.016Z,1013.97
2023-06-21T08:52:01.071Z,1014.04
2023-06-21T08:53:01.074Z,1014.08
2023-06-21T08:54:01.076Z,1014.08
2023-06-21T08:55:01.088Z,1014.09
2023-06-21T08:56:02.994Z,1013.99
2023-06-21T08:57:01.510Z,1014.05
2023-06-21T08:58:01.119Z,1014.05
2023-06-21T08:59:01.127Z,1014.1
2023-06-21T09:00:01.125Z,1014.11
2023-06-21T09:01:04.311Z,1014.08
2023-06-21T09:02:03.999Z,1014.14
2023-06-21T09:03:01.237Z,1014.14
2023-06-21T09:04:01.241Z,1014.14
2023-06-21T09:05:01.084Z,1014.11
2023-06-21T09:06:06.504Z,1014.15
2023-06-21T09:07:02.141Z,1014.14
2023-06-21T09:08:04.608Z,1014.2
2023-06-21T09:09:01.157Z,1014.2
2023-06-21T09:10:00.884Z,1014.18
2023-06-21T09:11:09.365Z,1014.11
2023-06-21T09:12:01.097Z,1014.16
2023-06-21T09:13:01.363Z,1014.25
2023-06-21T09:14:01.128Z,1014.2
2023-06-21T09:15:01.124Z,1014.23
2023-06-21T09:16:11.448Z,1014.28
2023-06-21T09:17:01.662Z,1014.25
2023-06-21T09:18:01.834Z,1014.27
2023-06-21T09:19:02.336Z,1014.21
2023-06-21T09:20:01.448Z,1014.26
2023-06-21T09:21:14.237Z,1014.2
2023-06-21T09:22:01.731Z,1014.24
2023-06-21T09:23:02.000Z,1014.21
2023-06-21T09:24:01.489Z,1014.26
2023-06-21T09:25:01.488Z,1014.22
2023-06-21T09:26:16.751Z,1014.23
2023-06-21T09:27:01.092Z,1014.23
2023-06-21T09:28:01.095Z,1014.22
2023-06-21T09:29:01.108Z,1014.31
2023-06-21T09:30:16.922Z,1014.32
2023-06-21T09:31:01.132Z,1014.32
2023-06-21T09:32:01.122Z,1014.34
2023-06-21T09:33:01.245Z,1014.31
2023-06-21T09:34:01.454Z,1014.3
2023-06-21T09:35:01.299Z,1014.24
2023-06-21T09:36:02.059Z,1014.26
2023-06-21T09:37:01.046Z,1014.34
2023-06-21T09:38:01.101Z,1014.34
2023-06-21T09:39:01.043Z,1014.4
2023-06-21T09:40:01.064Z,1014.31
2023-06-21T09:41:01.098Z,1014.24
2023-06-21T09:42:01.082Z,1014.27
2023-06-21T09:43:01.146Z,1014.23
2023-06-21T09:44:01.112Z,1014.25
2023-06-21T09:45:01.715Z,1014.22
2023-06-21T09:46:01.523Z,1014.16
2023-06-21T09:47:01.125Z,1014.22
2023-06-21T09:48:01.288Z,1014.21
2023-06-21T09:49:01.252Z,1014.17
2023-06-21T09:50:01.036Z,1014.17
2023-06-21T09:51:01.046Z,1014.15
2023-06-21T09:52:01.407Z,1014.21
2023-06-21T09:53:01.270Z,1014.14
2023-06-21T09:54:01.238Z,1014.19
2023-06-21T09:55:01.259Z,1014.21
2023-06-21T09:56:01.401Z,1014.2
2023-06-21T09:57:01.036Z,1014.2
2023-06-21T09:58:01.470Z,1014.2
2023-06-21T09:59:01.113Z,1014.22
2023-06-21T10:00:01.167Z,1014.18
2023-06-21T10:01:02.140Z,1014.21
2023-06-21T10:02:02.150Z,1014.23
2023-06-21T10:03:01.605Z,1014.18
2023-06-21T10:04:01.272Z,1014.24
2023-06-21T10:05:01.248Z,1014.18
2023-06-21T10:06:01.999Z,1014.17
2023-06-21T10:07:01.912Z,1014.26
2023-06-21T10:08:00.671Z,1014.25
2023-06-21T10:09:00.454Z,1014.22
2023-06-21T10:10:00.145Z,1014.19
2023-06-21T10:10:59.835Z,1014.2
2023-06-21T10:12:01.469Z,1014.25
2023-06-21T10:13:01.288Z,1014.27
2023-06-21T10:14:02.117Z,1014.23
2023-06-21T10:15:01.227Z,1014.22
2023-06-21T10:16:01.085Z,1014.21
2023-06-21T10:17:01.114Z,1014.28
2023-06-21T10:18:06.001Z,1014.2
2023-06-21T10:19:01.092Z,1014.19
2023-06-21T10:20:01.181Z,1014.22
2023-06-21T10:21:01.036Z,1014.18
2023-06-21T10:22:01.137Z,1014.16
2023-06-21T10:23:01.433Z,1014.18
2023-06-21T10:24:01.061Z,1014.21
2023-06-21T10:25:02.573Z,1014.19
2023-06-21T10:26:01.478Z,1014.16
2023-06-21T10:27:01.093Z,1014.19
2023-06-21T10:28:01.234Z,1014.18
2023-06-21T10:29:01.227Z,1014.17
2023-06-21T10:30:01.205Z,1014.25
2023-06-21T10:31:01.135Z,1014.21
2023-06-21T10:32:01.543Z,1014.22
2023-06-21T10:33:02.202Z,1014.26
2023-06-21T10:34:01.435Z,1014.27
2023-06-21T10:35:01.856Z,1014.22
2023-06-21T10:36:01.051Z,1014.26
2023-06-21T10:37:01.079Z,1014.27
2023-06-21T10:38:01.061Z,1014.34
2023-06-21T10:39:01.350Z,1014.33
2023-06-21T10:40:10.597Z,1014.29
2023-06-21T10:41:01.105Z,1014.31
2023-06-21T10:42:01.216Z,1014.33
2023-06-21T10:43:01.099Z,1014.3
2023-06-21T10:44:01.098Z,1014.35
2023-06-21T10:45:01.043Z,1014.36
2023-06-21T10:46:00.807Z,1014.37
2023-06-21T10:47:01.110Z,1014.36
2023-06-21T10:48:01.268Z,1014.41
2023-06-21T10:49:01.129Z,1014.33
2023-06-21T10:50:01.036Z,1014.37
2023-06-21T10:51:01.374Z,1014.32
2023-06-21T10:52:01.910Z,1014.35
2023-06-21T10:53:01.080Z,1014.35
2023-06-21T10:54:01.364Z,1014.27
2023-06-21T10:55:01.362Z,1014.27
2023-06-21T10:56:02.085Z,1014.3
2023-06-21T10:57:04.722Z,1014.36
2023-06-21T10:58:02.634Z,1014.38
2023-06-21T10:59:01.775Z,1014.35
2023-06-21T11:00:01.233Z,1014.34
2023-06-21T11:01:04.148Z,1014.39
2023-06-21T11:02:06.189Z,1014.35
2023-06-21T11:03:01.216Z,1014.39
2023-06-21T11:04:01.104Z,1014.35
2023-06-21T11:05:01.205Z,1014.38
2023-06-21T11:06:00.932Z,1014.32
2023-06-21T11:07:09.750Z,1014.29
2023-06-21T11:08:01.069Z,1014.32
2023-06-21T11:09:01.176Z,1014.29
2023-06-21T11:10:01.415Z,1014.35
2023-06-21T11:11:01.409Z,1014.32
2023-06-21T11:12:11.967Z,1014.34
2023-06-21T11:13:02.206Z,1014.33
2023-06-21T11:14:01.177Z,1014.33
2023-06-21T11:15:01.375Z,1014.31
2023-06-21T11:16:01.051Z,1014.29
2023-06-21T11:17:14.855Z,1014.31
2023-06-21T11:18:01.059Z,1014.31
2023-06-21T11:19:01.178Z,1014.29
2023-06-21T11:20:01.130Z,1014.32
2023-06-21T11:21:01.113Z,1014.32
2023-06-21T11:22:16.776Z,1014.32
2023-06-21T11:23:01.069Z,1014.32
2023-06-21T11:24:01.074Z,1014.32
2023-06-21T11:25:01.103Z,1014.3
2023-06-21T11:26:00.621Z,1014.34
2023-06-21T11:27:00.314Z,1014.25
2023-06-21T11:28:00.092Z,1014.28
2023-06-21T11:28:59.806Z,1014.31
2023-06-21T11:30:02.508Z,1014.34
2023-06-21T11:31:02.304Z,1014.29
2023-06-21T11:32:01.144Z,1014.2
2023-06-21T11:33:01.207Z,1014.27
2023-06-21T11:34:01.258Z,1014.27
2023-06-21T11:35:01.230Z,1014.29
2023-06-21T11:36:01.975Z,1014.24
2023-06-21T11:37:01.058Z,1014.26
2023-06-21T11:38:01.472Z,1014.31
2023-06-21T11:39:01.213Z,1014.25
2023-06-21T11:40:02.241Z,1014.29
2023-06-21T11:41:02.032Z,1014.29
2023-06-21T11:42:02.039Z,1014.28
2023-06-21T11:43:01.142Z,1014.25
2023-06-21T11:44:01.247Z,1014.3
2023-06-21T11:45:01.914Z,1014.27
2023-06-21T11:46:01.436Z,1014.32
2023-06-21T11:47:01.336Z,1014.24
2023-06-21T11:48:02.275Z,1014.24
2023-06-21T11:49:03.489Z,1014.28
2023-06-21T11:50:01.403Z,1014.28
2023-06-21T11:51:01.069Z,1014.26
2023-06-21T11:52:00.729Z,1014.36
2023-06-21T11:53:00.834Z,1014.33
2023-06-21T11:54:02.564Z,1014.38
2023-06-21T11:55:01.319Z,1014.41
2023-06-21T11:56:01.145Z,1014.4
2023-06-21T11:57:01.027Z,1014.36
2023-06-21T11:58:01.161Z,1014.37
2023-06-21T11:59:01.153Z,1014.4
2023-06-21T12:00:01.925Z,1014.42
2023-06-21T12:01:02.192Z,1014.42
2023-06-21T12:02:02.126Z,1014.42
2023-06-21T12:03:03.103Z,1014.42
2023-06-21T12:04:01.321Z,1014.41
2023-06-21T12:05:01.482Z,1014.4
2023-06-21T12:06:02.076Z,1014.4
2023-06-21T12:07:01.182Z,1014.43
2023-06-21T12:08:01.233Z,1014.46
2023-06-21T12:09:01.286Z,1014.43